createdAt,value
2019-03-08T00:00:54.386Z,2.30
2019-03-08T00:03:23.833Z,2.97
2019-03-08T00:05:53.281Z,2.70
2019-03-08T00:08:22.712Z,2.80
2019-03-08T00:10:52.198Z,3.00
2019-03-08T00:13:21.918Z,3.40
2019-03-08T00:15:51.402Z,3.67
2019-03-08T00:18:20.930Z,3.80
2019-03-08T00:20:50.399Z,4.13
2019-03-08T00:23:19.884Z,4.50
2019-03-08T00:25:49.348Z,3.83
2019-03-08T00:28:18.829Z,4.10
2019-03-08T00:30:48.346Z,3.80
2019-03-08T00:33:17.839Z,3.80
2019-03-08T00:35:47.298Z,3.97
2019-03-08T00:38:16.797Z,4.13
2019-03-08T00:40:46.460Z,4.20
2019-03-08T00:43:15.917Z,4.33
2019-03-08T00:45:45.459Z,4.30
2019-03-08T00:48:14.284Z,4.80
2019-03-08T00:50:43.792Z,4.40
2019-03-08T00:53:13.225Z,4.60
2019-03-08T00:55:42.697Z,3.83
2019-03-08T00:58:12.190Z,4.17
2019-03-08T01:00:42.184Z,4.53
2019-03-08T01:03:11.664Z,4.50
2019-03-08T01:05:41.216Z,4.60
2019-03-08T01:08:11.201Z,4.63
2019-03-08T01:10:40.669Z,5.07
2019-03-08T01:13:11.693Z,5.23
2019-03-08T01:15:42.863Z,6.80
2019-03-08T01:18:12.345Z,7.30
2019-03-08T01:20:42.795Z,7.37
2019-03-08T01:23:13.442Z,7.83
2019-03-08T01:25:44.090Z,8.43
2019-03-08T01:28:16.410Z,8.97
2019-03-08T01:30:46.437Z,10.83
2019-03-08T01:33:17.325Z,9.90
2019-03-08T01:35:49.333Z,10.43
2019-03-08T01:38:18.842Z,10.20
2019-03-08T01:40:48.333Z,9.90
2019-03-08T01:43:17.843Z,10.37
2019-03-08T01:45:47.374Z,10.97
2019-03-08T01:48:16.890Z,10.00
2019-03-08T01:50:46.403Z,10.10
2019-03-08T01:53:15.831Z,10.20
2019-03-08T01:55:45.322Z,9.77
2019-03-08T01:58:14.824Z,9.80
2019-03-08T02:00:44.678Z,10.43
2019-03-08T02:03:14.312Z,10.03
2019-03-08T02:05:43.798Z,9.50
2019-03-08T02:08:13.273Z,9.80
2019-03-08T02:10:42.723Z,9.67
2019-03-08T02:13:13.811Z,9.40
2019-03-08T02:15:43.590Z,8.67
2019-03-08T02:18:14.028Z,7.90
2019-03-08T02:20:43.824Z,8.77
2019-03-08T02:23:14.220Z,5.93
2019-03-08T02:25:45.568Z,5.67
2019-03-08T02:28:14.833Z,4.83
2019-03-08T02:30:46.522Z,4.47
2019-03-08T02:33:16.067Z,3.40
2019-03-08T02:35:45.545Z,3.90
2019-03-08T02:38:15.441Z,4.03
2019-03-08T02:40:45.233Z,3.73
2019-03-08T02:43:16.769Z,4.17
2019-03-08T02:45:46.167Z,4.87
2019-03-08T02:48:16.814Z,4.93
2019-03-08T02:50:46.257Z,3.87
2019-03-08T02:53:16.201Z,3.87
2019-03-08T02:55:45.704Z,3.53
2019-03-08T02:58:15.286Z,3.50
2019-03-08T03:00:46.467Z,3.57
2019-03-08T03:03:17.129Z,3.10
2019-03-08T03:05:46.634Z,3.40
2019-03-08T03:08:16.087Z,3.60
2019-03-08T03:10:45.566Z,3.67
2019-03-08T03:13:15.079Z,4.13
2019-03-08T03:15:44.773Z,3.87
2019-03-08T03:18:14.200Z,4.40
2019-03-08T03:20:43.665Z,4.53
2019-03-08T03:23:13.134Z,4.53
2019-03-08T03:25:42.639Z,4.30
2019-03-08T03:28:12.154Z,4.47
2019-03-08T03:30:41.662Z,4.40
2019-03-08T03:33:11.151Z,4.70
2019-03-08T03:35:40.603Z,4.73
2019-03-08T03:38:10.078Z,4.90
2019-03-08T03:40:39.978Z,5.13
2019-03-08T03:43:09.503Z,5.23
2019-03-08T03:45:38.338Z,5.07
2019-03-08T03:48:08.051Z,5.30
2019-03-08T03:50:37.478Z,5.20
2019-03-08T03:53:07.787Z,5.80
2019-03-08T03:55:37.545Z,5.83
2019-03-08T03:58:07.031Z,5.70
2019-03-08T04:00:36.576Z,5.87
2019-03-08T04:03:06.067Z,5.50
2019-03-08T04:05:35.539Z,5.13
2019-03-08T04:08:05.027Z,5.10
2019-03-08T04:10:34.025Z,4.70
2019-03-08T04:13:03.479Z,4.90
2019-03-08T04:15:33.173Z,3.90
2019-03-08T04:18:04.574Z,4.63
2019-03-08T04:20:33.760Z,4.50
2019-03-08T04:23:03.219Z,4.17
2019-03-08T04:25:33.721Z,3.40
2019-03-08T04:28:03.607Z,3.90
2019-03-08T04:30:34.750Z,4.33
2019-03-08T04:33:04.228Z,3.77
2019-03-08T04:35:34.927Z,4.00
2019-03-08T04:38:04.834Z,4.10
2019-03-08T04:40:36.681Z,3.53
2019-03-08T04:43:05.574Z,3.87
2019-03-08T04:45:35.414Z,3.40
2019-03-08T04:48:06.712Z,4.53
2019-03-08T04:50:36.204Z,3.20
2019-03-08T04:53:05.759Z,4.07
2019-03-08T04:55:36.328Z,3.23
2019-03-08T04:58:07.563Z,3.33
2019-03-08T05:00:37.965Z,3.33
2019-03-08T05:03:07.497Z,3.47
2019-03-08T05:05:37.405Z,3.00
2019-03-08T05:08:07.318Z,3.03
2019-03-08T05:10:36.809Z,3.17
2019-03-08T05:13:06.534Z,3.20
2019-03-08T05:15:36.032Z,2.47
2019-03-08T05:18:06.431Z,3.07
2019-03-08T05:20:36.190Z,2.67
2019-03-08T05:23:05.698Z,2.63
2019-03-08T05:25:36.960Z,3.27
2019-03-08T05:28:06.411Z,3.53
2019-03-08T05:30:35.594Z,2.93
2019-03-08T05:33:05.098Z,3.57
2019-03-08T05:35:35.782Z,3.90
2019-03-08T05:38:05.266Z,3.27
2019-03-08T05:40:34.724Z,4.00
2019-03-08T05:43:04.661Z,3.47
2019-03-08T05:45:34.117Z,4.47
2019-03-08T05:48:03.640Z,3.87
2019-03-08T05:50:33.127Z,3.30
2019-03-08T05:53:02.578Z,3.47
2019-03-08T05:55:32.073Z,3.40
2019-03-08T05:58:01.016Z,3.43
2019-03-08T06:00:35.251Z,3.87
2019-03-08T06:03:07.575Z,4.10
2019-03-08T06:05:37.062Z,3.47
2019-03-08T06:08:08.927Z,3.23
2019-03-08T06:10:38.746Z,3.70
2019-03-08T06:13:08.330Z,3.40
2019-03-08T06:15:37.660Z,3.93
2019-03-08T06:18:07.163Z,4.00
2019-03-08T06:20:36.660Z,4.37
2019-03-08T06:23:08.448Z,8.10
2019-03-08T06:25:37.946Z,4.47
2019-03-08T06:28:08.387Z,4.30
2019-03-08T06:30:38.751Z,5.07
2019-03-08T06:33:07.565Z,5.37
2019-03-08T06:35:37.948Z,4.67
2019-03-08T06:38:07.432Z,4.50
2019-03-08T06:40:36.910Z,4.40
2019-03-08T06:43:07.552Z,4.43
2019-03-08T06:45:36.978Z,4.47
2019-03-08T06:48:06.598Z,4.70
2019-03-08T06:50:36.080Z,4.07
2019-03-08T06:53:05.536Z,3.77
2019-03-08T06:55:37.774Z,3.90
2019-03-08T06:58:07.316Z,4.07
2019-03-08T07:01:01.521Z,4.17
2019-03-08T07:03:31.008Z,5.00
2019-03-08T07:06:00.477Z,4.10
2019-03-08T07:08:29.934Z,3.53
2019-03-08T07:11:01.687Z,3.83
2019-03-08T07:13:34.694Z,3.77
2019-03-08T07:16:12.974Z,4.13
2019-03-08T07:18:41.861Z,3.93
2019-03-08T07:21:18.756Z,4.23
2019-03-08T07:24:05.982Z,4.07
2019-03-08T07:26:53.312Z,5.00
2019-03-08T07:29:41.658Z,3.77
2019-03-08T07:32:28.571Z,4.47
2019-03-08T07:35:16.998Z,3.93
2019-03-08T07:38:18.451Z,4.67
2019-03-08T07:41:12.601Z,4.07
2019-03-08T07:44:12.977Z,3.50
2019-03-08T07:46:51.906Z,3.57
2019-03-08T07:49:43.104Z,3.90
2019-03-08T07:52:21.698Z,3.97
2019-03-08T07:55:14.037Z,4.10
2019-03-08T07:58:09.723Z,3.90
2019-03-08T08:00:46.709Z,3.40
2019-03-08T08:03:44.581Z,3.33
2019-03-08T08:06:19.290Z,3.10
2019-03-08T08:09:13.477Z,3.60
2019-03-08T08:12:02.402Z,4.20
2019-03-08T08:14:44.017Z,3.83
2019-03-08T08:17:38.465Z,3.80
2019-03-08T08:20:16.733Z,4.07
2019-03-08T08:23:17.475Z,4.13
2019-03-08T08:26:20.875Z,4.43
2019-03-08T08:29:08.114Z,4.30
2019-03-08T08:31:56.599Z,4.73
2019-03-08T08:34:33.169Z,4.33
2019-03-08T08:37:19.143Z,5.07
2019-03-08T08:40:06.410Z,4.63
2019-03-08T08:43:13.139Z,4.23
2019-03-08T08:46:07.663Z,4.80
2019-03-08T08:48:56.082Z,4.03
2019-03-08T08:51:46.030Z,4.43
2019-03-08T08:54:49.791Z,4.60
2019-03-08T08:57:40.969Z,4.40
2019-03-08T09:00:28.515Z,4.50
2019-03-08T09:03:22.810Z,5.17
2019-03-08T09:06:26.607Z,5.17
2019-03-08T09:09:09.191Z,4.50
2019-03-08T09:11:57.536Z,4.87
2019-03-08T09:14:34.293Z,4.60
2019-03-08T09:17:21.449Z,4.83
2019-03-08T09:20:09.877Z,4.00
2019-03-08T09:22:50.861Z,4.50
2019-03-08T09:25:34.515Z,3.67
2019-03-08T09:28:35.105Z,4.60
2019-03-08T09:31:35.686Z,3.83
2019-03-08T09:34:18.338Z,4.13
2019-03-08T09:36:56.423Z,4.63
2019-03-08T09:39:44.801Z,4.23
2019-03-08T09:42:23.692Z,4.80
2019-03-08T09:45:12.119Z,4.57
2019-03-08T09:47:59.730Z,4.67
2019-03-08T09:50:38.495Z,3.60
2019-03-08T09:53:21.589Z,3.70
2019-03-08T09:56:22.068Z,4.27
2019-03-08T09:59:27.465Z,4.47
2019-03-08T10:02:22.155Z,4.03
2019-03-08T10:05:06.932Z,3.90
2019-03-08T10:07:41.647Z,4.23
2019-03-08T10:10:28.646Z,4.17
2019-03-08T10:13:11.705Z,3.43
2019-03-08T10:15:51.652Z,3.10
2019-03-08T10:18:30.697Z,3.30
2019-03-08T10:21:31.190Z,3.27
2019-03-08T10:24:28.454Z,3.40
2019-03-08T10:27:15.615Z,2.60
2019-03-08T10:30:02.541Z,3.10
2019-03-08T10:32:46.018Z,2.87
2019-03-08T10:35:38.743Z,3.00
2019-03-08T10:38:22.619Z,3.40
2019-03-08T10:40:58.577Z,3.20
2019-03-08T10:43:53.087Z,3.07
2019-03-08T10:46:32.451Z,2.97
2019-03-08T10:49:17.301Z,2.83
2019-03-08T10:51:53.966Z,3.63
2019-03-08T10:54:32.703Z,2.50
2019-03-08T10:57:29.944Z,3.37
2019-03-08T11:00:36.400Z,3.13
2019-03-08T11:03:27.570Z,3.53
2019-03-08T11:06:06.042Z,3.73
2019-03-08T11:08:53.792Z,3.47
2019-03-08T11:11:43.963Z,3.93
2019-03-08T11:14:38.150Z,3.77
2019-03-08T11:17:32.119Z,3.90
2019-03-08T11:20:19.521Z,3.17
2019-03-08T11:23:13.711Z,3.37
2019-03-08T11:26:00.800Z,3.17
2019-03-08T11:28:49.188Z,3.87
2019-03-08T11:31:40.403Z,3.90
2019-03-08T11:34:19.646Z,3.73
2019-03-08T11:36:56.883Z,3.20
2019-03-08T11:39:45.743Z,3.53
2019-03-08T11:42:27.142Z,3.30
2019-03-08T11:45:26.233Z,3.23
2019-03-08T11:48:14.579Z,3.77
2019-03-08T11:51:03.349Z,2.93
2019-03-08T11:53:55.891Z,3.23
2019-03-08T11:56:42.732Z,3.77
2019-03-08T11:59:30.102Z,3.50
2019-03-08T12:02:18.528Z,3.17
2019-03-08T12:04:57.790Z,2.80
2019-03-08T12:07:33.243Z,3.47
2019-03-08T12:10:27.818Z,3.50
2019-03-08T12:13:08.797Z,3.63
2019-03-08T12:16:00.211Z,3.40
2019-03-08T12:18:51.707Z,3.30
2019-03-08T12:21:39.169Z,4.10
2019-03-08T12:24:23.311Z,3.40
2019-03-08T12:27:05.211Z,3.90
2019-03-08T12:30:04.312Z,3.90
2019-03-08T12:32:51.240Z,3.00
2019-03-08T12:35:44.927Z,3.73
2019-03-08T12:38:29.569Z,3.87
2019-03-08T12:41:16.692Z,3.70
2019-03-08T12:44:09.852Z,3.63
2019-03-08T12:46:53.466Z,2.70
2019-03-08T12:49:51.058Z,2.73
2019-03-08T12:52:35.634Z,2.67
2019-03-08T12:55:27.261Z,3.87
2019-03-08T12:58:14.986Z,3.90
2019-03-08T13:00:59.739Z,2.80
2019-03-08T13:03:54.335Z,2.53
2019-03-08T13:06:41.845Z,2.97
2019-03-08T13:09:31.187Z,2.60
2019-03-08T13:12:00.630Z,3.40
2019-03-08T13:14:30.074Z,3.33
2019-03-08T13:16:59.546Z,2.67
2019-03-08T13:19:29.043Z,3.10
2019-03-08T13:21:58.472Z,2.90
2019-03-08T13:24:27.353Z,2.70
2019-03-08T13:26:56.794Z,2.67
2019-03-08T13:29:26.298Z,3.20
2019-03-08T13:31:55.770Z,2.73
2019-03-08T13:34:25.194Z,2.70
2019-03-08T13:36:54.718Z,2.63
2019-03-08T13:39:23.583Z,2.47
2019-03-08T13:41:53.060Z,3.30
2019-03-08T13:44:22.509Z,2.73
2019-03-08T13:46:51.938Z,3.00
2019-03-08T13:49:21.585Z,3.57
2019-03-08T13:51:51.088Z,2.97
2019-03-08T13:54:20.573Z,3.80
2019-03-08T13:56:49.995Z,2.90
2019-03-08T13:59:19.555Z,3.27
2019-03-08T14:01:48.413Z,3.73
2019-03-08T14:04:17.842Z,3.07
2019-03-08T14:06:47.327Z,3.30
2019-03-08T14:09:17.942Z,2.90
2019-03-08T14:11:47.456Z,2.60
2019-03-08T14:14:16.285Z,3.23
2019-03-08T14:16:46.075Z,2.73
2019-03-08T14:19:15.583Z,2.60
2019-03-08T14:21:45.035Z,2.60
2019-03-08T14:24:14.451Z,2.63
2019-03-08T14:26:43.903Z,2.90
2019-03-08T14:29:13.409Z,3.10
2019-03-08T14:31:49.306Z,3.10
2019-03-08T14:34:19.651Z,2.80
2019-03-08T14:36:49.598Z,2.97
2019-03-08T14:39:19.932Z,3.10
2019-03-08T14:42:05.391Z,3.73
2019-03-08T14:44:54.448Z,3.33
2019-03-08T14:47:33.458Z,3.60
2019-03-08T14:50:02.375Z,2.33
2019-03-08T14:52:32.400Z,2.50
2019-03-08T14:55:02.321Z,2.50
2019-03-08T14:57:32.268Z,2.47
2019-03-08T15:00:02.532Z,2.53
2019-03-08T15:02:42.020Z,2.00
2019-03-08T15:05:18.695Z,2.57
2019-03-08T15:07:54.438Z,1.97
2019-03-08T15:10:39.055Z,2.20
2019-03-08T15:13:13.267Z,3.23
2019-03-08T15:15:51.510Z,3.30
2019-03-08T15:18:31.217Z,3.40
2019-03-08T15:21:10.960Z,2.07
2019-03-08T15:23:50.918Z,2.57
2019-03-08T15:26:26.915Z,2.50
2019-03-08T15:29:04.421Z,2.40
2019-03-08T15:31:43.540Z,2.50
2019-03-08T15:34:21.778Z,2.03
2019-03-08T15:36:57.972Z,2.80
2019-03-08T15:39:36.438Z,2.07
2019-03-08T15:42:06.580Z,2.20
2019-03-08T15:44:36.056Z,2.23
2019-03-08T15:47:05.657Z,1.90
2019-03-08T15:49:34.466Z,2.73
2019-03-08T15:52:04.647Z,1.77
2019-03-08T15:54:34.515Z,2.30
2019-03-08T15:57:03.985Z,2.23
2019-03-08T15:59:33.471Z,1.90
2019-03-08T16:02:06.177Z,2.20
2019-03-08T16:04:33.431Z,2.50
2019-03-08T16:07:03.074Z,2.00
2019-03-08T16:09:32.566Z,2.17
2019-03-08T16:12:01.975Z,2.10
2019-03-08T16:14:31.431Z,2.37
2019-03-08T16:17:00.976Z,2.93
2019-03-08T16:19:30.661Z,2.83
2019-03-08T16:22:00.119Z,1.90
2019-03-08T16:24:31.264Z,2.07
2019-03-08T16:27:02.420Z,2.40
2019-03-08T16:29:31.661Z,3.20
2019-03-08T16:32:12.661Z,2.30
2019-03-08T16:34:41.940Z,2.50
2019-03-08T16:37:24.919Z,2.27
2019-03-08T16:40:00.311Z,2.43
2019-03-08T16:42:48.431Z,2.30
2019-03-08T16:45:45.881Z,2.10
2019-03-08T16:48:25.795Z,2.70
2019-03-08T16:51:01.438Z,2.63
2019-03-08T16:53:45.452Z,2.60
2019-03-08T16:56:29.863Z,2.30
2019-03-08T16:59:09.656Z,2.37
2019-03-08T17:01:48.740Z,2.27
2019-03-08T17:04:29.978Z,2.40
2019-03-08T17:07:19.234Z,2.23
2019-03-08T17:10:10.668Z,2.47
2019-03-08T17:12:59.052Z,2.40
2019-03-08T17:15:52.199Z,3.10
2019-03-08T17:18:50.316Z,3.00
2019-03-08T17:21:37.657Z,2.50
2019-03-08T17:24:34.846Z,2.53
2019-03-08T17:27:19.774Z,2.33
2019-03-08T17:30:14.331Z,2.83
2019-03-08T17:33:05.443Z,2.17
2019-03-08T17:36:03.214Z,2.20
2019-03-08T17:38:43.246Z,2.30
2019-03-08T17:41:49.889Z,2.93
2019-03-08T17:44:28.205Z,3.03
2019-03-08T17:47:08.807Z,2.50
2019-03-08T17:50:06.084Z,3.17
2019-03-08T17:53:12.952Z,3.43
2019-03-08T17:55:51.446Z,2.53
2019-03-08T17:58:36.938Z,2.83
2019-03-08T18:01:21.975Z,3.00
2019-03-08T18:04:08.311Z,3.00
2019-03-08T18:07:02.655Z,2.30
2019-03-08T18:09:51.311Z,2.70
2019-03-08T18:12:36.296Z,3.00
2019-03-08T18:15:14.075Z,3.20
2019-03-08T18:18:20.847Z,2.70
2019-03-08T18:21:12.197Z,2.53
2019-03-08T18:23:53.967Z,3.20
2019-03-08T18:26:42.463Z,2.83
2019-03-08T18:29:33.751Z,2.60
2019-03-08T18:32:24.999Z,2.93
2019-03-08T18:35:02.342Z,3.07
2019-03-08T18:37:53.762Z,3.17
2019-03-08T18:40:40.481Z,3.23
2019-03-08T18:43:28.880Z,3.40
2019-03-08T18:46:16.218Z,3.03
2019-03-08T18:48:58.918Z,3.37
2019-03-08T18:51:56.098Z,3.50
2019-03-08T18:54:53.714Z,3.17
2019-03-08T18:57:45.281Z,2.93
2019-03-08T19:00:30.860Z,2.93
2019-03-08T19:03:28.401Z,3.00
2019-03-08T19:06:16.914Z,2.80
2019-03-08T19:09:04.691Z,2.90
2019-03-08T19:11:51.970Z,2.97
2019-03-08T19:14:47.547Z,2.90
2019-03-08T19:17:42.015Z,2.70
2019-03-08T19:20:36.179Z,3.03
2019-03-08T19:23:22.625Z,3.40
2019-03-08T19:26:02.819Z,3.20
2019-03-08T19:28:57.213Z,3.70
2019-03-08T19:31:31.229Z,3.77
2019-03-08T19:34:18.159Z,4.17
2019-03-08T19:37:04.358Z,4.40
2019-03-08T19:39:41.972Z,3.87
2019-03-08T19:42:23.241Z,4.80
2019-03-08T19:45:14.658Z,4.10
2019-03-08T19:48:05.131Z,4.53
2019-03-08T19:50:52.087Z,4.93
2019-03-08T19:53:38.951Z,4.07
2019-03-08T19:56:39.660Z,4.97
2019-03-08T19:59:26.557Z,4.73
2019-03-08T20:02:05.622Z,4.20
2019-03-08T20:04:50.927Z,5.03
2019-03-08T20:07:41.134Z,5.53
2019-03-08T20:10:28.413Z,5.27
2019-03-08T20:13:04.310Z,4.90
2019-03-08T20:16:11.013Z,5.43
2019-03-08T20:18:57.714Z,5.87
2019-03-08T20:21:46.115Z,5.53
2019-03-08T20:24:24.985Z,5.53
2019-03-08T20:27:13.402Z,5.63
2019-03-08T20:30:04.783Z,6.77
2019-03-08T20:32:44.720Z,8.20
2019-03-08T20:35:29.711Z,8.20
2019-03-08T20:38:06.292Z,8.23
2019-03-08T20:40:50.131Z,7.93
2019-03-08T20:43:47.990Z,5.73
2019-03-08T20:46:39.752Z,4.50
2019-03-08T20:49:09.269Z,3.83
2019-03-08T20:51:38.730Z,2.90
2019-03-08T20:54:08.188Z,2.80
2019-03-08T20:56:37.045Z,2.80
2019-03-08T20:59:07.113Z,2.53
2019-03-08T21:01:36.705Z,2.60
2019-03-08T21:04:06.122Z,2.77
2019-03-08T21:06:35.551Z,2.77
2019-03-08T21:09:07.506Z,2.43
2019-03-08T21:11:37.242Z,2.90
2019-03-08T21:14:06.693Z,3.00
2019-03-08T21:16:37.409Z,2.90
2019-03-08T21:19:07.039Z,3.00
2019-03-08T21:21:36.506Z,3.20
2019-03-08T21:24:06.206Z,3.00
2019-03-08T21:26:35.064Z,3.40
2019-03-08T21:29:04.548Z,3.50
2019-03-08T21:31:33.978Z,3.40
2019-03-08T21:34:03.539Z,3.27
2019-03-08T21:36:32.379Z,3.40
2019-03-08T21:39:01.858Z,4.67
2019-03-08T21:41:31.291Z,6.10
2019-03-08T21:44:00.758Z,6.80
2019-03-08T21:46:30.218Z,6.80
2019-03-08T21:48:59.938Z,6.87
2019-03-08T21:51:29.390Z,7.33
2019-03-08T21:53:58.802Z,8.00
2019-03-08T21:56:28.250Z,8.17
2019-03-08T21:58:57.699Z,8.00
2019-03-08T22:01:26.861Z,7.87
2019-03-08T22:04:01.532Z,8.50
2019-03-08T22:06:31.032Z,9.57
2019-03-08T22:09:18.227Z,8.93
2019-03-08T22:11:48.206Z,8.80
2019-03-08T22:14:17.676Z,9.73
2019-03-08T22:16:47.115Z,9.60
2019-03-08T22:19:16.570Z,9.23
2019-03-08T22:21:46.065Z,9.50
2019-03-08T22:24:15.931Z,8.93
2019-03-08T22:26:45.422Z,8.37
2019-03-08T22:29:14.909Z,8.20
2019-03-08T22:31:44.548Z,7.90
2019-03-08T22:34:13.991Z,7.57
2019-03-08T22:36:43.961Z,7.80
2019-03-08T22:39:13.474Z,7.30
2019-03-08T22:41:42.938Z,7.07
2019-03-08T22:44:12.419Z,6.47
2019-03-08T22:46:45.275Z,6.93
2019-03-08T22:49:12.420Z,6.00
2019-03-08T22:51:41.905Z,6.87
2019-03-08T22:54:11.412Z,6.70
2019-03-08T22:56:40.901Z,5.73
2019-03-08T22:59:10.370Z,6.13
2019-03-08T23:01:46.387Z,6.13
2019-03-08T23:04:15.876Z,6.40
2019-03-08T23:06:45.355Z,5.97
2019-03-08T23:09:16.275Z,5.83
2019-03-08T23:11:45.780Z,5.50
2019-03-08T23:14:15.231Z,5.50
2019-03-08T23:16:44.727Z,5.80
2019-03-08T23:19:13.574Z,5.43
2019-03-08T23:21:43.043Z,5.57
2019-03-08T23:24:12.477Z,5.30
2019-03-08T23:27:01.954Z,5.57
2019-03-08T23:29:40.195Z,5.60
2019-03-08T23:32:14.455Z,5.70
2019-03-08T23:34:43.958Z,5.63
2019-03-08T23:37:13.418Z,5.70
2019-03-08T23:39:42.894Z,5.50
2019-03-08T23:42:12.355Z,5.80
2019-03-08T23:44:41.855Z,5.33
2019-03-08T23:47:11.341Z,5.70
2019-03-08T23:49:40.818Z,5.80
2019-03-08T23:52:10.313Z,5.73
2019-03-08T23:54:39.803Z,5.03
2019-03-08T23:57:08.663Z,5.73
2019-03-08T23:59:37.525Z,5.10
